sensor_id;sensor_type;location;lat;lon;timestamp;P1;durP1;ratioP1;P2;durP2;ratioP2
4694;SDS011;2361;49.540;8.390;2023-04-03T00:01:00;1.83;;;1.70;;
4694;SDS011;2361;49.540;8.390;2023-04-03T00:03:28;1.50;;;1.50;;
4694;SDS011;2361;49.540;8.390;2023-04-03T00:05:55;1.83;;;1.73;;
4694;SDS011;2361;49.540;8.390;2023-04-03T00:08:22;1.97;;;1.40;;
4694;SDS011;2361;49.540;8.390;2023-04-03T00:10:49;1.95;;;1.85;;
4694;SDS011;2361;49.540;8.390;2023-04-03T00:13:16;2.30;;;2.20;;
4694;SDS011;2361;49.540;8.390;2023-04-03T00:15:43;2.40;;;2.30;;
4694;SDS011;2361;49.540;8.390;2023-04-03T00:18:11;2.40;;;2.30;;
4694;SDS011;2361;49.540;8.390;2023-04-03T00:20:38;2.55;;;2.20;;
4694;SDS011;2361;49.540;8.390;2023-04-03T00:23:05;3.00;;;2.70;;
4694;SDS011;2361;49.540;8.390;2023-04-03T00:25:32;2.63;;;2.43;;
4694;SDS011;2361;49.540;8.390;2023-04-03T00:28:03;3.20;;;2.77;;
4694;SDS011;2361;49.540;8.390;2023-04-03T00:30:30;2.00;;;1.60;;
4694;SDS011;2361;49.540;8.390;2023-04-03T00:32:58;2.50;;;2.30;;
4694;SDS011;2361;49.540;8.390;2023-04-03T00:35:26;2.20;;;2.10;;
4694;SDS011;2361;49.540;8.390;2023-04-03T00:37:53;2.03;;;1.87;;
4694;SDS011;2361;49.540;8.390;2023-04-03T00:40:23;1.63;;;1.63;;
4694;SDS011;2361;49.540;8.390;2023-04-03T00:42:56;2.05;;;1.95;;
4694;SDS011;2361;49.540;8.390;2023-04-03T00:45:29;2.10;;;2.00;;
4694;SDS011;2361;49.540;8.390;2023-04-03T00:48:04;1.77;;;1.63;;
4694;SDS011;2361;49.540;8.390;2023-04-03T00:50:34;1.67;;;1.67;;
4694;SDS011;2361;49.540;8.390;2023-04-03T00:53:05;2.58;;;1.98;;
4694;SDS011;2361;49.540;8.390;2023-04-03T00:55:35;1.95;;;1.85;;
4694;SDS011;2361;49.540;8.390;2023-04-03T00:58:04;2.58;;;2.47;;
4694;SDS011;2361;49.540;8.390;2023-04-03T01:00:37;2.03;;;1.92;;
4694;SDS011;2361;49.540;8.390;2023-04-03T01:03:06;2.67;;;2.58;;
4694;SDS011;2361;49.540;8.390;2023-04-03T01:05:34;3.13;;;2.30;;
4694;SDS011;2361;49.540;8.390;2023-04-03T01:08:01;2.60;;;2.50;;
4694;SDS011;2361;49.540;8.390;2023-04-03T01:10:28;2.42;;;2.33;;
4694;SDS011;2361;49.540;8.390;2023-04-03T01:12:55;2.80;;;2.60;;
4694;SDS011;2361;49.540;8.390;2023-04-03T01:15:23;2.60;;;2.50;;
4694;SDS011;2361;49.540;8.390;2023-04-03T01:17:55;2.65;;;2.55;;
4694;SDS011;2361;49.540;8.390;2023-04-03T01:25:48;3.35;;;3.05;;
4694;SDS011;2361;49.540;8.390;2023-04-03T01:28:19;2.25;;;2.15;;
4694;SDS011;2361;49.540;8.390;2023-04-03T01:33:45;2.15;;;2.05;;
4694;SDS011;2361;49.540;8.390;2023-04-03T01:36:15;3.13;;;2.90;;
4694;SDS011;2361;49.540;8.390;2023-04-03T01:38:45;2.67;;;2.55;;
4694;SDS011;2361;49.540;8.390;2023-04-03T01:41:12;2.97;;;2.63;;
4694;SDS011;2361;49.540;8.390;2023-04-03T01:43:40;2.90;;;2.67;;
4694;SDS011;2361;49.540;8.390;2023-04-03T01:46:07;3.10;;;2.90;;
4694;SDS011;2361;49.540;8.390;2023-04-03T01:48:34;2.30;;;2.20;;
4694;SDS011;2361;49.540;8.390;2023-04-03T01:51:01;2.60;;;2.50;;
4694;SDS011;2361;49.540;8.390;2023-04-03T01:53:28;2.45;;;2.25;;
4694;SDS011;2361;49.540;8.390;2023-04-03T01:55:55;3.40;;;2.40;;
4694;SDS011;2361;49.540;8.390;2023-04-03T01:58:21;2.72;;;2.63;;
4694;SDS011;2361;49.540;8.390;2023-04-03T02:00:48;2.40;;;2.30;;
4694;SDS011;2361;49.540;8.390;2023-04-03T02:03:16;2.80;;;2.60;;
4694;SDS011;2361;49.540;8.390;2023-04-03T02:05:43;2.83;;;2.63;;
4694;SDS011;2361;49.540;8.390;2023-04-03T02:08:09;2.90;;;2.70;;
4694;SDS011;2361;49.540;8.390;2023-04-03T02:10:37;2.55;;;2.45;;
4694;SDS011;2361;49.540;8.390;2023-04-03T02:13:04;3.10;;;2.85;;
4694;SDS011;2361;49.540;8.390;2023-04-03T02:15:31;3.10;;;2.90;;
4694;SDS011;2361;49.540;8.390;2023-04-03T02:17:58;2.55;;;2.45;;
4694;SDS011;2361;49.540;8.390;2023-04-03T02:20:26;3.03;;;2.83;;
4694;SDS011;2361;49.540;8.390;2023-04-03T02:22:53;2.47;;;2.38;;
4694;SDS011;2361;49.540;8.390;2023-04-03T02:25:20;2.60;;;2.47;;
4694;SDS011;2361;49.540;8.390;2023-04-03T02:27:47;2.55;;;2.45;;
4694;SDS011;2361;49.540;8.390;2023-04-03T02:30:14;2.45;;;2.25;;
4694;SDS011;2361;49.540;8.390;2023-04-03T02:32:41;2.63;;;2.42;;
4694;SDS011;2361;49.540;8.390;2023-04-03T02:35:10;2.80;;;2.60;;
4694;SDS011;2361;49.540;8.390;2023-04-03T02:37:38;1.85;;;1.75;;
4694;SDS011;2361;49.540;8.390;2023-04-03T02:40:05;3.75;;;2.40;;
4694;SDS011;2361;49.540;8.390;2023-04-03T02:42:34;2.65;;;2.50;;
4694;SDS011;2361;49.540;8.390;2023-04-03T02:45:01;1.65;;;1.65;;
4694;SDS011;2361;49.540;8.390;2023-04-03T02:47:28;2.95;;;2.42;;
4694;SDS011;2361;49.540;8.390;2023-04-03T02:49:55;1.50;;;1.50;;
4694;SDS011;2361;49.540;8.390;2023-04-03T02:52:22;2.50;;;2.05;;
4694;SDS011;2361;49.540;8.390;2023-04-03T02:54:49;3.25;;;2.38;;
4694;SDS011;2361;49.540;8.390;2023-04-03T02:57:16;2.17;;;1.80;;
4694;SDS011;2361;49.540;8.390;2023-04-03T02:59:43;2.42;;;2.33;;
4694;SDS011;2361;49.540;8.390;2023-04-03T03:02:10;2.20;;;2.10;;
4694;SDS011;2361;49.540;8.390;2023-04-03T03:04:37;1.88;;;1.80;;
4694;SDS011;2361;49.540;8.390;2023-04-03T03:07:04;4.28;;;1.83;;
4694;SDS011;2361;49.540;8.390;2023-04-03T03:09:31;2.00;;;1.90;;
4694;SDS011;2361;49.540;8.390;2023-04-03T03:11:59;2.00;;;1.90;;
4694;SDS011;2361;49.540;8.390;2023-04-03T03:14:26;2.45;;;2.25;;
4694;SDS011;2361;49.540;8.390;2023-04-03T03:16:53;1.80;;;1.70;;
4694;SDS011;2361;49.540;8.390;2023-04-03T03:19:20;2.30;;;2.10;;
4694;SDS011;2361;49.540;8.390;2023-04-03T03:21:47;2.63;;;2.53;;
4694;SDS011;2361;49.540;8.390;2023-04-03T03:24:13;2.20;;;2.10;;
4694;SDS011;2361;49.540;8.390;2023-04-03T03:26:42;2.13;;;2.03;;
4694;SDS011;2361;49.540;8.390;2023-04-03T03:29:09;1.90;;;1.80;;
4694;SDS011;2361;49.540;8.390;2023-04-03T03:31:36;1.80;;;1.70;;
4694;SDS011;2361;49.540;8.390;2023-04-03T03:34:03;1.95;;;1.85;;
4694;SDS011;2361;49.540;8.390;2023-04-03T03:36:30;3.00;;;2.53;;
4694;SDS011;2361;49.540;8.390;2023-04-03T03:38:57;1.75;;;1.67;;
4694;SDS011;2361;49.540;8.390;2023-04-03T03:41:24;3.25;;;1.70;;
4694;SDS011;2361;49.540;8.390;2023-04-03T03:43:51;2.75;;;2.10;;
4694;SDS011;2361;49.540;8.390;2023-04-03T03:46:18;2.15;;;2.05;;
4694;SDS011;2361;49.540;8.390;2023-04-03T03:48:45;2.08;;;1.90;;
4694;SDS011;2361;49.540;8.390;2023-04-03T03:51:12;2.33;;;2.22;;
4694;SDS011;2361;49.540;8.390;2023-04-03T03:53:39;4.32;;;2.42;;
4694;SDS011;2361;49.540;8.390;2023-04-03T03:56:06;2.25;;;2.15;;
4694;SDS011;2361;49.540;8.390;2023-04-03T03:58:33;1.60;;;1.60;;
4694;SDS011;2361;49.540;8.390;2023-04-03T04:01:04;2.40;;;1.80;;
4694;SDS011;2361;49.540;8.390;2023-04-03T04:03:32;1.98;;;1.88;;
4694;SDS011;2361;49.540;8.390;2023-04-03T04:06:00;2.20;;;2.10;;
4694;SDS011;2361;49.540;8.390;2023-04-03T04:08:26;2.00;;;1.90;;
4694;SDS011;2361;49.540;8.390;2023-04-03T04:10:53;1.70;;;1.60;;
4694;SDS011;2361;49.540;8.390;2023-04-03T04:13:21;2.08;;;1.98;;
4694;SDS011;2361;49.540;8.390;2023-04-03T04:15:47;2.00;;;1.90;;
4694;SDS011;2361;49.540;8.390;2023-04-03T04:18:14;2.10;;;2.00;;
4694;SDS011;2361;49.540;8.390;2023-04-03T04:20:42;2.30;;;2.13;;
4694;SDS011;2361;49.540;8.390;2023-04-03T04:23:11;2.13;;;2.03;;
4694;SDS011;2361;49.540;8.390;2023-04-03T04:25:38;2.00;;;1.90;;
4694;SDS011;2361;49.540;8.390;2023-04-03T04:28:05;2.60;;;1.85;;
4694;SDS011;2361;49.540;8.390;2023-04-03T04:30:32;1.50;;;1.50;;
4694;SDS011;2361;49.540;8.390;2023-04-03T04:33:00;2.70;;;2.50;;
4694;SDS011;2361;49.540;8.390;2023-04-03T04:35:27;2.38;;;2.28;;
4694;SDS011;2361;49.540;8.390;2023-04-03T04:37:54;1.90;;;1.80;;
4694;SDS011;2361;49.540;8.390;2023-04-03T04:40:21;1.90;;;1.90;;
4694;SDS011;2361;49.540;8.390;2023-04-03T04:42:49;2.38;;;2.20;;
4694;SDS011;2361;49.540;8.390;2023-04-03T04:45:16;2.17;;;2.08;;
4694;SDS011;2361;49.540;8.390;2023-04-03T04:47:43;1.90;;;1.80;;
4694;SDS011;2361;49.540;8.390;2023-04-03T04:50:10;2.58;;;1.85;;
4694;SDS011;2361;49.540;8.390;2023-04-03T04:52:37;1.85;;;1.75;;
4694;SDS011;2361;49.540;8.390;2023-04-03T04:55:05;2.65;;;1.98;;
4694;SDS011;2361;49.540;8.390;2023-04-03T04:57:32;1.88;;;1.77;;
4694;SDS011;2361;49.540;8.390;2023-04-03T04:59:59;2.08;;;1.98;;
4694;SDS011;2361;49.540;8.390;2023-04-03T05:02:26;2.25;;;2.15;;
4694;SDS011;2361;49.540;8.390;2023-04-03T05:04:53;2.17;;;2.05;;
4694;SDS011;2361;49.540;8.390;2023-04-03T05:07:20;2.13;;;1.95;;
4694;SDS011;2361;49.540;8.390;2023-04-03T05:09:47;2.47;;;2.28;;
4694;SDS011;2361;49.540;8.390;2023-04-03T05:12:14;2.00;;;1.90;;
4694;SDS011;2361;49.540;8.390;2023-04-03T05:14:42;1.70;;;1.70;;
4694;SDS011;2361;49.540;8.390;2023-04-03T05:17:09;2.22;;;2.13;;
4694;SDS011;2361;49.540;8.390;2023-04-03T05:19:36;2.40;;;2.20;;
4694;SDS011;2361;49.540;8.390;2023-04-03T05:22:03;2.00;;;1.90;;
4694;SDS011;2361;49.540;8.390;2023-04-03T05:24:30;2.40;;;2.20;;
4694;SDS011;2361;49.540;8.390;2023-04-03T05:26:57;2.00;;;1.90;;
4694;SDS011;2361;49.540;8.390;2023-04-03T05:29:24;2.53;;;2.33;;
4694;SDS011;2361;49.540;8.390;2023-04-03T05:31:51;2.30;;;2.10;;
4694;SDS011;2361;49.540;8.390;2023-04-03T05:34:18;2.70;;;2.50;;
4694;SDS011;2361;49.540;8.390;2023-04-03T05:36:45;1.83;;;1.73;;
4694;SDS011;2361;49.540;8.390;2023-04-03T05:39:12;2.55;;;2.28;;
4694;SDS011;2361;49.540;8.390;2023-04-03T05:41:39;2.27;;;2.17;;
4694;SDS011;2361;49.540;8.390;2023-04-03T05:44:06;2.20;;;2.00;;
4694;SDS011;2361;49.540;8.390;2023-04-03T05:46:33;2.23;;;2.13;;
4694;SDS011;2361;49.540;8.390;2023-04-03T05:49:00;2.00;;;1.90;;
4694;SDS011;2361;49.540;8.390;2023-04-03T05:51:28;2.40;;;2.20;;
4694;SDS011;2361;49.540;8.390;2023-04-03T05:54:14;2.53;;;2.00;;
4694;SDS011;2361;49.540;8.390;2023-04-03T05:56:46;1.50;;;1.50;;
4694;SDS011;2361;49.540;8.390;2023-04-03T05:59:13;2.30;;;2.10;;
4694;SDS011;2361;49.540;8.390;2023-04-03T06:01:39;2.00;;;1.90;;
4694;SDS011;2361;49.540;8.390;2023-04-03T06:04:06;2.20;;;2.10;;
4694;SDS011;2361;49.540;8.390;2023-04-03T06:06:43;1.93;;;1.83;;
4694;SDS011;2361;49.540;8.390;2023-04-03T06:09:13;1.57;;;1.47;;
4694;SDS011;2361;49.540;8.390;2023-04-03T06:11:40;1.80;;;1.70;;
4694;SDS011;2361;49.540;8.390;2023-04-03T06:14:08;1.67;;;1.57;;
4694;SDS011;2361;49.540;8.390;2023-04-03T06:16:36;2.23;;;2.03;;
4694;SDS011;2361;49.540;8.390;2023-04-03T06:19:05;2.53;;;2.33;;
4694;SDS011;2361;49.540;8.390;2023-04-03T06:21:34;1.80;;;1.80;;
4694;SDS011;2361;49.540;8.390;2023-04-03T06:24:03;2.20;;;2.10;;
4694;SDS011;2361;49.540;8.390;2023-04-03T06:26:32;2.10;;;2.00;;
4694;SDS011;2361;49.540;8.390;2023-04-03T06:29:00;2.27;;;2.17;;
4694;SDS011;2361;49.540;8.390;2023-04-03T06:31:28;3.50;;;3.20;;
4694;SDS011;2361;49.540;8.390;2023-04-03T06:33:55;3.23;;;2.43;;
4694;SDS011;2361;49.540;8.390;2023-04-03T06:36:22;3.57;;;2.77;;
4694;SDS011;2361;49.540;8.390;2023-04-03T06:38:49;3.23;;;2.50;;
4694;SDS011;2361;49.540;8.390;2023-04-03T06:41:16;2.13;;;1.93;;
4694;SDS011;2361;49.540;8.390;2023-04-03T06:43:43;2.20;;;2.10;;
4694;SDS011;2361;49.540;8.390;2023-04-03T06:46:17;2.17;;;2.07;;
4694;SDS011;2361;49.540;8.390;2023-04-03T06:48:48;2.60;;;2.13;;
4694;SDS011;2361;49.540;8.390;2023-04-03T06:53:55;4.00;;;2.97;;
4694;SDS011;2361;49.540;8.390;2023-04-03T06:56:24;2.60;;;2.40;;
4694;SDS011;2361;49.540;8.390;2023-04-03T06:58:53;2.00;;;1.80;;
4694;SDS011;2361;49.540;8.390;2023-04-03T07:01:24;2.33;;;2.23;;
4694;SDS011;2361;49.540;8.390;2023-04-03T07:03:54;2.50;;;2.40;;
4694;SDS011;2361;49.540;8.390;2023-04-03T07:06:22;2.43;;;2.23;;
4694;SDS011;2361;49.540;8.390;2023-04-03T07:08:49;1.43;;;0.97;;
4694;SDS011;2361;49.540;8.390;2023-04-03T07:11:16;3.70;;;2.03;;
4694;SDS011;2361;49.540;8.390;2023-04-03T07:13:43;4.93;;;1.77;;
4694;SDS011;2361;49.540;8.390;2023-04-03T07:16:10;4.40;;;2.57;;
4694;SDS011;2361;49.540;8.390;2023-04-03T07:18:37;2.27;;;2.17;;
4694;SDS011;2361;49.540;8.390;2023-04-03T07:21:04;2.30;;;2.20;;
4694;SDS011;2361;49.540;8.390;2023-04-03T07:23:32;2.87;;;2.20;;
4694;SDS011;2361;49.540;8.390;2023-04-03T07:25:59;2.03;;;1.93;;
4694;SDS011;2361;49.540;8.390;2023-04-03T07:28:26;2.40;;;2.20;;
4694;SDS011;2361;49.540;8.390;2023-04-03T07:31:00;2.93;;;2.20;;
4694;SDS011;2361;49.540;8.390;2023-04-03T07:33:34;1.60;;;1.50;;
4694;SDS011;2361;49.540;8.390;2023-04-03T07:36:02;4.57;;;2.33;;
4694;SDS011;2361;49.540;8.390;2023-04-03T07:38:30;1.70;;;1.57;;
4694;SDS011;2361;49.540;8.390;2023-04-03T07:40:57;2.53;;;2.37;;
4694;SDS011;2361;49.540;8.390;2023-04-03T07:43:24;2.20;;;2.10;;
4694;SDS011;2361;49.540;8.390;2023-04-03T07:45:51;1.53;;;1.43;;
4694;SDS011;2361;49.540;8.390;2023-04-03T07:48:21;2.50;;;2.30;;
4694;SDS011;2361;49.540;8.390;2023-04-03T07:50:49;3.40;;;0.70;;
4694;SDS011;2361;49.540;8.390;2023-04-03T07:53:17;4.60;;;2.50;;
4694;SDS011;2361;49.540;8.390;2023-04-03T07:55:47;2.63;;;2.37;;
4694;SDS011;2361;49.540;8.390;2023-04-03T07:58:17;2.93;;;1.93;;
4694;SDS011;2361;49.540;8.390;2023-04-03T08:00:45;2.70;;;2.50;;
4694;SDS011;2361;49.540;8.390;2023-04-03T08:03:13;2.33;;;2.10;;
4694;SDS011;2361;49.540;8.390;2023-04-03T08:05:44;2.07;;;1.97;;
4694;SDS011;2361;49.540;8.390;2023-04-03T08:08:14;2.40;;;2.20;;
4694;SDS011;2361;49.540;8.390;2023-04-03T08:10:49;2.87;;;1.80;;
4694;SDS011;2361;49.540;8.390;2023-04-03T08:13:18;2.40;;;2.07;;
4694;SDS011;2361;49.540;8.390;2023-04-03T08:15:48;1.67;;;1.57;;
4694;SDS011;2361;49.540;8.390;2023-04-03T08:18:15;0.90;;;0.90;;
4694;SDS011;2361;49.540;8.390;2023-04-03T08:20:43;1.90;;;1.70;;
4694;SDS011;2361;49.540;8.390;2023-04-03T08:23:11;1.90;;;1.20;;
4694;SDS011;2361;49.540;8.390;2023-04-03T08:25:38;2.23;;;1.30;;
4694;SDS011;2361;49.540;8.390;2023-04-03T08:28:07;1.33;;;1.33;;
4694;SDS011;2361;49.540;8.390;2023-04-03T08:30:35;2.60;;;1.27;;
4694;SDS011;2361;49.540;8.390;2023-04-03T08:33:04;1.03;;;1.00;;
4694;SDS011;2361;49.540;8.390;2023-04-03T08:35:32;1.47;;;1.40;;
4694;SDS011;2361;49.540;8.390;2023-04-03T08:38:00;1.63;;;1.53;;
4694;SDS011;2361;49.540;8.390;2023-04-03T08:40:28;3.03;;;1.70;;
4694;SDS011;2361;49.540;8.390;2023-04-03T08:43:08;1.53;;;1.30;;
4694;SDS011;2361;49.540;8.390;2023-04-03T08:45:51;1.90;;;0.90;;
4694;SDS011;2361;49.540;8.390;2023-04-03T08:48:21;0.50;;;0.50;;
4694;SDS011;2361;49.540;8.390;2023-04-03T08:50:55;1.30;;;1.30;;
4694;SDS011;2361;49.540;8.390;2023-04-03T08:53:29;2.20;;;1.70;;
4694;SDS011;2361;49.540;8.390;2023-04-03T08:56:02;1.80;;;1.70;;
4694;SDS011;2361;49.540;8.390;2023-04-03T08:58:56;1.60;;;1.50;;
4694;SDS011;2361;49.540;8.390;2023-04-03T09:01:35;1.43;;;1.37;;
4694;SDS011;2361;49.540;8.390;2023-04-03T09:04:09;1.90;;;1.47;;
4694;SDS011;2361;49.540;8.390;2023-04-03T09:06:45;1.63;;;1.53;;
4694;SDS011;2361;49.540;8.390;2023-04-03T09:09:35;1.40;;;1.30;;
4694;SDS011;2361;49.540;8.390;2023-04-03T09:23:22;1.07;;;1.00;;
4694;SDS011;2361;49.540;8.390;2023-04-03T09:26:16;0.40;;;0.40;;
4694;SDS011;2361;49.540;8.390;2023-04-03T09:28:47;2.73;;;0.60;;
4694;SDS011;2361;49.540;8.390;2023-04-03T09:31:20;2.40;;;0.90;;
4694;SDS011;2361;49.540;8.390;2023-04-03T09:33:58;1.30;;;1.23;;
4694;SDS011;2361;49.540;8.390;2023-04-03T09:36:41;1.80;;;1.37;;
4694;SDS011;2361;49.540;8.390;2023-04-03T09:39:14;2.13;;;1.23;;
4694;SDS011;2361;49.540;8.390;2023-04-03T09:41:58;1.47;;;1.30;;
4694;SDS011;2361;49.540;8.390;2023-04-03T09:44:33;1.77;;;1.30;;
4694;SDS011;2361;49.540;8.390;2023-04-03T09:47:21;2.50;;;1.40;;
4694;SDS011;2361;49.540;8.390;2023-04-03T09:50:08;5.70;;;1.57;;
4694;SDS011;2361;49.540;8.390;2023-04-03T09:52:44;1.30;;;1.20;;
4694;SDS011;2361;49.540;8.390;2023-04-03T09:55:18;1.27;;;1.00;;
4694;SDS011;2361;49.540;8.390;2023-04-03T09:58:02;3.63;;;1.10;;
4694;SDS011;2361;49.540;8.390;2023-04-03T10:00:35;1.90;;;1.30;;
4694;SDS011;2361;49.540;8.390;2023-04-03T10:03:05;1.57;;;1.47;;
4694;SDS011;2361;49.540;8.390;2023-04-03T10:05:50;0.90;;;0.90;;
4694;SDS011;2361;49.540;8.390;2023-04-03T10:08:22;1.30;;;1.30;;
4694;SDS011;2361;49.540;8.390;2023-04-03T10:13:52;1.63;;;1.50;;
4694;SDS011;2361;49.540;8.390;2023-04-03T10:16:27;1.10;;;1.10;;
4694;SDS011;2361;49.540;8.390;2023-04-03T10:19:12;1.37;;;1.20;;
4694;SDS011;2361;49.540;8.390;2023-04-03T10:25:20;1.00;;;1.00;;
4694;SDS011;2361;49.540;8.390;2023-04-03T10:28:10;3.03;;;1.80;;
4694;SDS011;2361;49.540;8.390;2023-04-03T10:31:13;1.60;;;0.90;;
4694;SDS011;2361;49.540;8.390;2023-04-03T10:36:33;1.20;;;1.20;;
4694;SDS011;2361;49.540;8.390;2023-04-03T10:39:36;3.33;;;1.30;;
4694;SDS011;2361;49.540;8.390;2023-04-03T10:42:38;1.30;;;1.30;;
4694;SDS011;2361;49.540;8.390;2023-04-03T10:48:23;1.27;;;1.17;;
4694;SDS011;2361;49.540;8.390;2023-04-03T10:51:47;1.13;;;1.03;;
4694;SDS011;2361;49.540;8.390;2023-04-03T10:54:29;0.40;;;0.40;;
4694;SDS011;2361;49.540;8.390;2023-04-03T10:57:36;1.17;;;1.07;;
4694;SDS011;2361;49.540;8.390;2023-04-03T11:00:20;1.10;;;1.00;;
4694;SDS011;2361;49.540;8.390;2023-04-03T11:02:55;1.13;;;1.10;;
4694;SDS011;2361;49.540;8.390;2023-04-03T11:08:11;0.70;;;0.70;;
4694;SDS011;2361;49.540;8.390;2023-04-03T11:11:06;1.07;;;1.03;;
4694;SDS011;2361;49.540;8.390;2023-04-03T11:13:44;2.10;;;1.00;;
4694;SDS011;2361;49.540;8.390;2023-04-03T11:16:25;0.67;;;0.67;;
4694;SDS011;2361;49.540;8.390;2023-04-03T11:19:03;0.90;;;0.90;;
4694;SDS011;2361;49.540;8.390;2023-04-03T11:21:51;1.33;;;1.03;;
4694;SDS011;2361;49.540;8.390;2023-04-03T11:24:36;1.60;;;1.50;;
4694;SDS011;2361;49.540;8.390;2023-04-03T11:27:08;1.30;;;1.20;;
4694;SDS011;2361;49.540;8.390;2023-04-03T11:29:44;1.53;;;1.23;;
4694;SDS011;2361;49.540;8.390;2023-04-03T11:32:35;0.40;;;0.37;;
4694;SDS011;2361;49.540;8.390;2023-04-03T11:35:14;1.50;;;1.40;;
4694;SDS011;2361;49.540;8.390;2023-04-03T11:37:45;2.00;;;1.50;;
4694;SDS011;2361;49.540;8.390;2023-04-03T11:42:42;1.40;;;1.30;;
4694;SDS011;2361;49.540;8.390;2023-04-03T11:47:49;1.30;;;1.00;;
4694;SDS011;2361;49.540;8.390;2023-04-03T11:53:46;1.40;;;1.07;;
4694;SDS011;2361;49.540;8.390;2023-04-03T11:55:56;0.90;;;0.90;;
4694;SDS011;2361;49.540;8.390;2023-04-03T11:58:33;1.37;;;1.20;;
4694;SDS011;2361;49.540;8.390;2023-04-03T12:01:10;1.37;;;1.23;;
4694;SDS011;2361;49.540;8.390;2023-04-03T12:04:18;0.90;;;0.90;;
4694;SDS011;2361;49.540;8.390;2023-04-03T12:21:08;2.10;;;1.20;;
4694;SDS011;2361;49.540;8.390;2023-04-03T12:23:37;1.03;;;1.03;;
4694;SDS011;2361;49.540;8.390;2023-04-03T12:29:33;0.50;;;0.50;;
4694;SDS011;2361;49.540;8.390;2023-04-03T12:32:25;2.03;;;1.20;;
4694;SDS011;2361;49.540;8.390;2023-04-03T12:38:55;0.83;;;0.83;;
4694;SDS011;2361;49.540;8.390;2023-04-03T12:41:36;3.33;;;0.90;;
4694;SDS011;2361;49.540;8.390;2023-04-03T12:44:33;1.30;;;1.00;;
4694;SDS011;2361;49.540;8.390;2023-04-03T12:47:23;1.43;;;0.90;;
4694;SDS011;2361;49.540;8.390;2023-04-03T12:49:59;1.30;;;1.20;;
4694;SDS011;2361;49.540;8.390;2023-04-03T12:55:13;0.63;;;0.63;;
4694;SDS011;2361;49.540;8.390;2023-04-03T12:57:46;0.40;;;0.40;;
4694;SDS011;2361;49.540;8.390;2023-04-03T13:03:00;1.13;;;1.10;;
4694;SDS011;2361;49.540;8.390;2023-04-03T13:05:30;0.97;;;0.90;;
4694;SDS011;2361;49.540;8.390;2023-04-03T13:08:11;0.80;;;0.60;;
4694;SDS011;2361;49.540;8.390;2023-04-03T13:11:15;1.47;;;1.33;;
4694;SDS011;2361;49.540;8.390;2023-04-03T13:13:37;0.70;;;0.70;;
4694;SDS011;2361;49.540;8.390;2023-04-03T13:16:09;1.20;;;1.17;;
4694;SDS011;2361;49.540;8.390;2023-04-03T13:18:39;5.37;;;1.57;;
4694;SDS011;2361;49.540;8.390;2023-04-03T13:21:20;1.13;;;1.03;;
4694;SDS011;2361;49.540;8.390;2023-04-03T13:24:00;1.40;;;1.30;;
4694;SDS011;2361;49.540;8.390;2023-04-03T13:26:40;1.33;;;0.73;;
4694;SDS011;2361;49.540;8.390;2023-04-03T13:29:17;1.33;;;1.33;;
4694;SDS011;2361;49.540;8.390;2023-04-03T13:31:56;3.83;;;1.30;;
4694;SDS011;2361;49.540;8.390;2023-04-03T13:34:25;1.30;;;1.20;;
4694;SDS011;2361;49.540;8.390;2023-04-03T13:36:59;0.90;;;0.90;;
4694;SDS011;2361;49.540;8.390;2023-04-03T13:39:33;1.33;;;1.10;;
4694;SDS011;2361;49.540;8.390;2023-04-03T13:42:23;0.70;;;0.70;;
4694;SDS011;2361;49.540;8.390;2023-04-03T13:45:17;0.70;;;0.70;;
4694;SDS011;2361;49.540;8.390;2023-04-03T13:47:51;1.10;;;1.10;;
4694;SDS011;2361;49.540;8.390;2023-04-03T13:50:21;1.30;;;1.30;;
4694;SDS011;2361;49.540;8.390;2023-04-03T13:52:52;4.63;;;1.40;;
4694;SDS011;2361;49.540;8.390;2023-04-03T13:55:52;2.10;;;1.10;;
4694;SDS011;2361;49.540;8.390;2023-04-03T13:58:33;1.50;;;1.40;;
4694;SDS011;2361;49.540;8.390;2023-04-03T14:03:30;0.80;;;0.80;;
4694;SDS011;2361;49.540;8.390;2023-04-03T14:06:12;1.13;;;1.13;;
4694;SDS011;2361;49.540;8.390;2023-04-03T14:08:43;1.50;;;1.40;;
4694;SDS011;2361;49.540;8.390;2023-04-03T14:11:12;0.83;;;0.47;;
4694;SDS011;2361;49.540;8.390;2023-04-03T14:13:44;0.70;;;0.70;;
4694;SDS011;2361;49.540;8.390;2023-04-03T14:16:16;1.23;;;0.73;;
4694;SDS011;2361;49.540;8.390;2023-04-03T14:18:47;1.20;;;1.07;;
4694;SDS011;2361;49.540;8.390;2023-04-03T14:21:17;2.00;;;1.50;;
4694;SDS011;2361;49.540;8.390;2023-04-03T14:23:46;0.80;;;0.80;;
4694;SDS011;2361;49.540;8.390;2023-04-03T14:26:14;0.80;;;0.80;;
4694;SDS011;2361;49.540;8.390;2023-04-03T14:28:47;0.57;;;0.57;;
4694;SDS011;2361;49.540;8.390;2023-04-03T14:31:18;1.70;;;1.60;;
4694;SDS011;2361;49.540;8.390;2023-04-03T14:33:47;1.53;;;1.43;;
4694;SDS011;2361;49.540;8.390;2023-04-03T14:36:15;1.03;;;1.03;;
4694;SDS011;2361;49.540;8.390;2023-04-03T14:38:47;0.50;;;0.50;;
4694;SDS011;2361;49.540;8.390;2023-04-03T14:41:16;0.93;;;0.80;;
4694;SDS011;2361;49.540;8.390;2023-04-03T14:43:48;1.77;;;1.30;;
4694;SDS011;2361;49.540;8.390;2023-04-03T14:46:17;2.33;;;0.90;;
4694;SDS011;2361;49.540;8.390;2023-04-03T14:48:54;1.07;;;0.80;;
4694;SDS011;2361;49.540;8.390;2023-04-03T14:51:21;3.13;;;1.07;;
4694;SDS011;2361;49.540;8.390;2023-04-03T14:53:48;1.10;;;1.10;;
4694;SDS011;2361;49.540;8.390;2023-04-03T14:56:23;0.50;;;0.50;;
4694;SDS011;2361;49.540;8.390;2023-04-03T14:58:55;1.20;;;1.20;;
4694;SDS011;2361;49.540;8.390;2023-04-03T15:01:28;1.10;;;1.00;;
4694;SDS011;2361;49.540;8.390;2023-04-03T15:03:55;1.57;;;1.47;;
4694;SDS011;2361;49.540;8.390;2023-04-03T15:06:22;1.03;;;0.93;;
4694;SDS011;2361;49.540;8.390;2023-04-03T15:08:49;10.10;;;1.83;;
4694;SDS011;2361;49.540;8.390;2023-04-03T15:11:16;2.47;;;0.93;;
4694;SDS011;2361;49.540;8.390;2023-04-03T15:13:43;0.90;;;0.83;;
4694;SDS011;2361;49.540;8.390;2023-04-03T15:16:12;0.60;;;0.60;;
4694;SDS011;2361;49.540;8.390;2023-04-03T15:18:43;2.63;;;1.33;;
4694;SDS011;2361;49.540;8.390;2023-04-03T15:21:11;1.20;;;1.10;;
4694;SDS011;2361;49.540;8.390;2023-04-03T15:23:38;0.80;;;0.80;;
4694;SDS011;2361;49.540;8.390;2023-04-03T15:26:06;1.33;;;0.50;;
4694;SDS011;2361;49.540;8.390;2023-04-03T15:28:37;0.50;;;0.50;;
4694;SDS011;2361;49.540;8.390;2023-04-03T15:31:07;0.70;;;0.70;;
4694;SDS011;2361;49.540;8.390;2023-04-03T15:33:34;1.10;;;1.10;;
4694;SDS011;2361;49.540;8.390;2023-04-03T15:36:02;1.23;;;1.13;;
4694;SDS011;2361;49.540;8.390;2023-04-03T15:38:33;0.93;;;0.93;;
4694;SDS011;2361;49.540;8.390;2023-04-03T15:41:00;2.00;;;0.60;;
4694;SDS011;2361;49.540;8.390;2023-04-03T15:43:28;0.93;;;0.90;;
4694;SDS011;2361;49.540;8.390;2023-04-03T15:45:56;0.67;;;0.53;;
4694;SDS011;2361;49.540;8.390;2023-04-03T15:48:25;0.70;;;0.70;;
4694;SDS011;2361;49.540;8.390;2023-04-03T15:50:53;0.83;;;0.83;;
4694;SDS011;2361;49.540;8.390;2023-04-03T15:53:22;0.60;;;0.60;;
4694;SDS011;2361;49.540;8.390;2023-04-03T15:55:49;0.83;;;0.83;;
4694;SDS011;2361;49.540;8.390;2023-04-03T15:58:16;0.80;;;0.80;;
4694;SDS011;2361;49.540;8.390;2023-04-03T16:00:43;1.10;;;1.10;;
4694;SDS011;2361;49.540;8.390;2023-04-03T16:03:11;1.10;;;1.10;;
4694;SDS011;2361;49.540;8.390;2023-04-03T16:05:41;1.10;;;1.10;;
4694;SDS011;2361;49.540;8.390;2023-04-03T16:08:09;2.50;;;0.90;;
4694;SDS011;2361;49.540;8.390;2023-04-03T16:10:37;0.40;;;0.40;;
4694;SDS011;2361;49.540;8.390;2023-04-03T16:13:05;18.63;;;5.23;;
4694;SDS011;2361;49.540;8.390;2023-04-03T16:15:32;1.30;;;1.07;;
4694;SDS011;2361;49.540;8.390;2023-04-03T16:18:00;0.90;;;0.80;;
4694;SDS011;2361;49.540;8.390;2023-04-03T16:20:28;0.97;;;0.97;;
4694;SDS011;2361;49.540;8.390;2023-04-03T16:22:56;0.50;;;0.50;;
4694;SDS011;2361;49.540;8.390;2023-04-03T16:25:26;0.80;;;0.73;;
4694;SDS011;2361;49.540;8.390;2023-04-03T16:27:53;0.97;;;0.97;;
4694;SDS011;2361;49.540;8.390;2023-04-03T16:30:20;0.67;;;0.50;;
4694;SDS011;2361;49.540;8.390;2023-04-03T16:32:47;0.83;;;0.83;;
4694;SDS011;2361;49.540;8.390;2023-04-03T16:35:14;0.83;;;0.83;;
4694;SDS011;2361;49.540;8.390;2023-04-03T16:37:42;0.73;;;0.70;;
4694;SDS011;2361;49.540;8.390;2023-04-03T16:40:09;1.20;;;1.10;;
4694;SDS011;2361;49.540;8.390;2023-04-03T16:42:37;5.90;;;1.10;;
4694;SDS011;2361;49.540;8.390;2023-04-03T16:45:05;0.80;;;0.80;;
4694;SDS011;2361;49.540;8.390;2023-04-03T16:47:33;1.00;;;0.90;;
4694;SDS011;2361;49.540;8.390;2023-04-03T16:50:00;4.83;;;1.10;;
4694;SDS011;2361;49.540;8.390;2023-04-03T16:52:27;0.80;;;0.80;;
4694;SDS011;2361;49.540;8.390;2023-04-03T16:54:55;0.70;;;0.70;;